Terminal Aerodrome Forecast
Issued by NWS Tulsa, OK

Home | Current Version | Previous Version | Text Only | Print | Product List | Glossary On
Versions: 1 2 3 4 5 6 7 8 9 10 11 12 13 14
000
FTUS44 KTSA 302320
TAFFSM
TAF
KFSM 302320Z 3100/3124 05005KT P6SM VCTS SCT050CB
     FM310100 07004KT P6SM SCT090 BKN250
     FM311800 12008KT P6SM SCT050=

USA.gov is the U.S. government's official web portal to all federal, state and local government web resources and services.